createdAt,value
2022-11-16T00:14:31.804Z,94
2022-11-16T00:29:31.811Z,94
2022-11-16T00:44:31.778Z,94
2022-11-16T00:59:31.778Z,94
2022-11-16T01:14:31.738Z,94
2022-11-16T01:29:31.755Z,95
2022-11-16T01:44:31.747Z,95
2022-11-16T01:59:31.712Z,95
2022-11-16T02:14:31.712Z,95
2022-11-16T02:29:31.679Z,95
2022-11-16T02:44:31.790Z,95
2022-11-16T02:59:31.665Z,95
2022-11-16T03:14:31.631Z,95
2022-11-16T03:29:31.610Z,95
2022-11-16T03:44:31.566Z,95
2022-11-16T03:59:31.584Z,95
2022-11-16T04:14:31.540Z,95
2022-11-16T04:29:31.559Z,95
2022-11-16T04:44:31.512Z,95
2022-11-16T04:59:31.508Z,96
2022-11-16T05:14:31.477Z,96
2022-11-16T05:29:31.492Z,96
2022-11-16T05:44:31.446Z,96
2022-11-16T05:59:31.454Z,96
2022-11-16T06:14:31.423Z,96
2022-11-16T06:29:31.387Z,96
2022-11-16T06:44:31.389Z,96
2022-11-16T06:59:31.353Z,96
2022-11-16T07:14:31.373Z,96
2022-11-16T07:29:31.332Z,96
2022-11-16T07:44:31.308Z,96
2022-11-16T07:59:31.314Z,97
2022-11-16T08:14:31.284Z,97
2022-11-16T08:44:31.252Z,96
2022-11-16T08:59:31.259Z,96
2022-11-16T09:14:31.219Z,97
2022-11-16T09:29:31.237Z,97
2022-11-16T09:44:31.193Z,96
2022-11-16T09:59:31.200Z,95
2022-11-16T10:14:31.168Z,93
2022-11-16T10:29:31.170Z,90
2022-11-16T10:59:31.103Z,86
2022-11-16T11:14:31.067Z,84
2022-11-16T11:29:31.070Z,82
2022-11-16T11:44:31.003Z,83
2022-11-16T11:59:31.020Z,85
2022-11-16T12:14:30.953Z,84
2022-11-16T12:29:30.978Z,85
2022-11-16T12:44:30.906Z,85
2022-11-16T12:59:30.941Z,86
2022-11-16T13:14:30.870Z,86
2022-11-16T13:29:30.896Z,83
2022-11-16T13:44:30.837Z,84
2022-11-16T13:59:30.845Z,83
2022-11-16T14:14:30.790Z,81
2022-11-16T14:29:30.800Z,82
2022-11-16T14:44:30.744Z,82
2022-11-16T14:59:30.764Z,79
2022-11-16T15:14:30.723Z,78
2022-11-16T15:29:30.718Z,79
2022-11-16T15:44:30.688Z,80
2022-11-16T15:59:30.662Z,80
2022-11-16T16:14:30.621Z,79
2022-11-16T16:29:30.639Z,80
2022-11-16T16:44:30.618Z,81
2022-11-16T16:59:30.603Z,82
2022-11-16T17:14:30.543Z,82
2022-11-16T17:29:30.580Z,82
2022-11-16T17:44:30.509Z,83
2022-11-16T17:59:30.518Z,83
2022-11-16T18:14:30.478Z,84
2022-11-16T18:29:30.493Z,85
2022-11-16T18:44:30.421Z,86
2022-11-16T18:59:30.444Z,87
2022-11-16T19:14:30.391Z,87
2022-11-16T19:29:30.423Z,87
2022-11-16T19:44:30.376Z,87
2022-11-16T19:59:30.379Z,87
2022-11-16T20:14:30.388Z,89
2022-11-16T20:29:30.328Z,89
2022-11-16T20:44:30.305Z,89
2022-11-16T20:59:30.287Z,89
2022-11-16T21:14:30.270Z,89
2022-11-16T21:29:30.257Z,88
2022-11-16T21:44:30.255Z,88
2022-11-16T21:59:30.229Z,88
2022-11-16T22:14:30.199Z,88
2022-11-16T22:29:30.221Z,88
2022-11-16T22:44:30.180Z,88
2022-11-16T22:59:30.192Z,89
2022-11-16T23:14:30.133Z,90
2022-11-16T23:29:30.147Z,90
2022-11-16T23:44:30.117Z,91
2022-11-16T23:59:30.134Z,90
